createdAt,value
2022-09-01T00:00:09.142Z,77.72
2022-09-01T00:02:56.782Z,78.48
2022-09-01T00:05:24.287Z,78.69
2022-09-01T00:07:51.509Z,78.87
2022-09-01T00:10:18.759Z,78.87
2022-09-01T00:12:46.274Z,79.62
2022-09-01T00:15:14.805Z,79.00
2022-09-01T00:17:42.246Z,78.86
2022-09-01T00:20:13.433Z,79.91
2022-09-01T00:22:42.113Z,79.98
2022-09-01T00:25:09.875Z,79.62
2022-09-01T00:27:37.256Z,79.50
2022-09-01T00:30:05.949Z,79.58
2022-09-01T00:32:33.231Z,79.39
2022-09-01T00:35:00.923Z,79.96
2022-09-01T00:37:28.304Z,80.45
2022-09-01T00:39:55.520Z,80.83
2022-09-01T00:42:23.896Z,80.67
2022-09-01T00:44:51.116Z,80.41
2022-09-01T00:47:19.387Z,80.47
2022-09-01T00:49:50.925Z,80.45
2022-09-01T00:52:28.185Z,81.33
2022-09-01T00:55:02.591Z,81.05
2022-09-01T00:57:30.138Z,81.07
2022-09-01T01:00:06.981Z,80.70
2022-09-01T01:02:34.363Z,81.15
2022-09-01T01:05:03.404Z,80.95
2022-09-01T01:07:31.172Z,81.29
2022-09-01T01:09:58.436Z,80.98
2022-09-01T01:12:30.919Z,81.79
2022-09-01T01:14:58.160Z,81.43
2022-09-01T01:17:25.758Z,81.33
2022-09-01T01:20:15.298Z,82.16
2022-09-01T01:23:16.098Z,81.64
2022-09-01T01:25:57.550Z,82.26
2022-09-01T01:28:32.246Z,82.11
2022-09-01T01:31:14.100Z,82.73
2022-09-01T01:33:54.678Z,82.91
2022-09-01T01:36:35.962Z,82.49
2022-09-01T01:39:16.512Z,82.75
2022-09-01T01:41:48.991Z,83.15
2022-09-01T01:44:28.053Z,82.93
2022-09-01T01:46:57.503Z,82.60
2022-09-01T01:49:29.230Z,83.02
2022-09-01T01:51:58.175Z,83.17
2022-09-01T01:54:31.434Z,82.99
2022-09-01T01:57:00.848Z,83.26
2022-09-01T01:59:30.054Z,82.95
2022-09-01T02:01:58.348Z,83.48
2022-09-01T02:04:26.339Z,83.25
2022-09-01T02:06:53.618Z,83.14
2022-09-01T02:09:23.399Z,83.26
2022-09-01T02:11:55.542Z,83.84
2022-09-01T02:14:23.422Z,83.60
2022-09-01T02:16:50.891Z,83.60
2022-09-01T02:19:21.262Z,83.87
2022-09-01T02:21:54.296Z,83.99
2022-09-01T02:24:32.141Z,83.25
2022-09-01T02:27:00.612Z,82.92
2022-09-01T02:29:28.881Z,83.56
2022-09-01T02:31:57.854Z,83.63
2022-09-01T02:34:27.737Z,83.93
2022-09-01T02:36:57.780Z,83.70
2022-09-01T02:39:30.307Z,83.30
2022-09-01T02:41:58.634Z,83.58
2022-09-01T02:44:27.924Z,83.99
2022-09-01T02:46:56.105Z,83.80
2022-09-01T02:49:28.366Z,84.07
2022-09-01T02:51:59.683Z,83.96
2022-09-01T02:54:30.969Z,84.30
2022-09-01T02:56:58.739Z,84.02
2022-09-01T02:59:30.542Z,84.46
2022-09-01T03:01:58.060Z,85.00
2022-09-01T03:04:44.119Z,84.69
2022-09-01T03:07:13.988Z,84.58
2022-09-01T03:09:43.017Z,85.06
2022-09-01T03:12:10.693Z,84.32
2022-09-01T03:14:38.152Z,85.13
2022-09-01T03:17:05.465Z,84.52
2022-09-01T03:19:42.016Z,84.33
2022-09-01T03:22:10.103Z,84.59
2022-09-01T03:24:37.350Z,84.96
2022-09-01T03:27:04.834Z,84.89
2022-09-01T03:29:32.291Z,85.32
2022-09-01T03:31:59.533Z,84.70
2022-09-01T03:34:27.220Z,84.30
2022-09-01T03:36:55.974Z,84.29
2022-09-01T03:39:23.184Z,84.30
2022-09-01T03:41:50.405Z,84.42
2022-09-01T03:44:17.969Z,84.21
2022-09-01T03:46:45.468Z,84.14
2022-09-01T03:49:25.038Z,84.21
2022-09-01T03:51:56.529Z,84.11
2022-09-01T03:54:27.959Z,84.06
2022-09-01T03:56:55.412Z,84.28
2022-09-01T03:59:25.586Z,84.65
2022-09-01T04:01:53.275Z,84.60
2022-09-01T04:04:21.008Z,84.09
2022-09-01T04:06:49.236Z,84.33
2022-09-01T04:09:16.430Z,84.30
2022-09-01T04:11:47.036Z,84.59
2022-09-01T04:14:15.704Z,84.28
2022-09-01T04:17:03.670Z,84.29
2022-09-01T04:19:39.524Z,83.65
2022-09-01T04:22:08.192Z,83.64
2022-09-01T04:24:35.854Z,83.76
2022-09-01T04:27:04.457Z,83.64
2022-09-01T04:29:32.932Z,83.66
2022-09-01T04:32:13.201Z,83.50
2022-09-01T04:34:41.800Z,83.22
2022-09-01T04:37:21.427Z,82.71
2022-09-01T04:39:56.849Z,82.44
2022-09-01T04:42:29.534Z,81.97
2022-09-01T04:44:58.285Z,81.77
2022-09-01T04:47:35.604Z,81.63
2022-09-01T04:50:14.349Z,81.56
2022-09-01T04:52:47.860Z,81.21
2022-09-01T04:55:18.766Z,81.26
2022-09-01T04:57:49.627Z,81.04
2022-09-01T05:00:24.441Z,80.75
2022-09-01T05:03:04.684Z,80.63
2022-09-01T05:05:45.110Z,79.99
2022-09-01T05:08:24.035Z,79.62
2022-09-01T05:10:56.890Z,79.62
2022-09-01T05:13:27.372Z,79.67
2022-09-01T05:16:13.072Z,79.35
2022-09-01T05:18:45.664Z,78.85
2022-09-01T05:21:14.924Z,78.67
2022-09-01T05:23:47.110Z,78.61
2022-09-01T05:26:19.788Z,78.33
2022-09-01T05:29:00.654Z,77.74
2022-09-01T05:31:35.072Z,77.69
2022-09-01T05:34:03.476Z,76.97
2022-09-01T05:36:33.642Z,76.68
2022-09-01T05:39:02.187Z,76.31
2022-09-01T05:41:29.700Z,76.41
2022-09-01T05:44:00.608Z,76.18
2022-09-01T05:46:28.736Z,75.62
2022-09-01T05:48:57.654Z,75.45
2022-09-01T05:51:46.488Z,75.35
2022-09-01T05:54:23.344Z,75.19
2022-09-01T05:56:50.871Z,74.70
2022-09-01T05:59:25.242Z,74.31
2022-09-01T06:01:55.040Z,74.10
2022-09-01T06:04:25.710Z,74.11
2022-09-01T06:07:05.626Z,73.84
2022-09-01T06:09:41.704Z,73.40
2022-09-01T06:12:18.148Z,73.00
2022-09-01T06:14:48.707Z,72.13
2022-09-01T06:17:25.131Z,71.86
2022-09-01T06:19:58.660Z,71.71
2022-09-01T06:22:28.656Z,71.33
2022-09-01T06:25:01.862Z,69.08
2022-09-01T06:27:30.329Z,68.69
2022-09-01T06:29:58.358Z,67.02
2022-09-01T06:32:27.288Z,62.99
2022-09-01T06:34:56.406Z,59.65
2022-09-01T06:37:23.846Z,54.43
2022-09-01T06:39:51.287Z,51.14
2022-09-01T06:42:19.644Z,48.65
2022-09-01T06:44:47.435Z,47.51
2022-09-01T06:47:15.717Z,45.92
2022-09-01T06:49:43.731Z,44.32
2022-09-01T06:52:13.961Z,43.86
2022-09-01T06:54:43.996Z,42.67
2022-09-01T06:59:58.741Z,40.45
2022-09-01T07:02:27.179Z,39.46
2022-09-01T07:08:09.441Z,34.55
2022-09-01T07:14:14.516Z,28.20
2022-09-01T07:16:32.493Z,26.66
2022-09-01T07:19:02.699Z,25.80
2022-09-01T07:21:41.942Z,27.70
2022-09-01T07:24:20.525Z,28.39
2022-09-01T07:26:50.853Z,28.03
2022-09-01T07:29:20.094Z,29.81
2022-09-01T07:31:52.043Z,29.61
2022-09-01T07:34:39.513Z,28.45
2022-09-01T07:39:56.486Z,28.78
2022-09-01T07:45:28.821Z,26.09
2022-09-01T07:48:03.417Z,22.57
2022-09-01T07:53:31.593Z,17.61
2022-09-01T07:56:07.163Z,17.10
2022-09-01T07:58:35.440Z,15.68
2022-09-01T08:01:07.501Z,15.11
2022-09-01T08:03:35.955Z,14.77
2022-09-01T08:06:10.795Z,14.18
2022-09-01T08:08:40.157Z,13.51
2022-09-01T08:11:08.813Z,13.58
2022-09-01T08:13:41.733Z,12.64
2022-09-01T08:16:18.941Z,12.44
2022-09-01T08:18:49.125Z,13.30
2022-09-01T08:21:22.203Z,12.50
2022-09-01T08:23:53.543Z,12.32
2022-09-01T08:26:25.842Z,12.79
2022-09-01T08:28:55.367Z,11.47
2022-09-01T08:31:24.951Z,16.19
2022-09-01T08:33:52.730Z,19.36
2022-09-01T08:36:23.994Z,22.83
2022-09-01T08:38:53.403Z,19.72
2022-09-01T08:41:53.220Z,20.38
2022-09-01T08:44:49.954Z,23.04
2022-09-01T08:47:28.816Z,27.20
2022-09-01T08:50:00.677Z,28.98
2022-09-01T08:52:41.361Z,19.90
2022-09-01T08:55:38.594Z,15.00
2022-09-01T08:58:07.849Z,12.76
2022-09-01T09:00:45.967Z,10.74
2022-09-01T09:04:04.300Z,9.61
2022-09-01T09:06:53.761Z,8.07
2022-09-01T09:09:32.396Z,8.31
2022-09-01T09:12:51.436Z,7.36
2022-09-01T09:16:25.844Z,7.37
2022-09-01T09:19:02.392Z,6.78
2022-09-01T09:21:41.406Z,6.63
2022-09-01T09:24:22.425Z,5.92
2022-09-01T09:26:53.177Z,6.55
2022-09-01T09:29:23.191Z,6.12
2022-09-01T09:32:22.480Z,5.69
2022-09-01T09:34:51.138Z,5.84
2022-09-01T09:37:29.259Z,5.84
2022-09-01T09:40:10.984Z,4.79
2022-09-01T09:43:04.022Z,4.71
2022-09-01T09:45:42.937Z,4.65
2022-09-01T09:48:30.017Z,4.31
2022-09-01T09:51:28.931Z,4.64
2022-09-01T09:54:26.250Z,3.96
2022-09-01T09:57:08.950Z,4.28
2022-09-01T09:59:57.790Z,4.58
2022-09-01T10:02:44.082Z,4.60
2022-09-01T10:05:30.153Z,4.75
2022-09-01T10:07:58.569Z,3.87
2022-09-01T10:10:58.395Z,5.55
2022-09-01T10:13:32.579Z,8.41
2022-09-01T10:16:11.258Z,6.75
2022-09-01T10:18:44.934Z,5.09
2022-09-01T10:21:42.974Z,7.55
2022-09-01T10:24:38.827Z,9.86
2022-09-01T10:27:19.008Z,6.20
2022-09-01T10:30:12.410Z,4.67
2022-09-01T10:33:07.458Z,5.79
2022-09-01T10:35:45.632Z,9.63
2022-09-01T10:38:28.205Z,11.34
2022-09-01T10:41:10.115Z,13.28
2022-09-01T10:43:45.803Z,14.54
2022-09-01T10:46:27.615Z,15.60
2022-09-01T10:49:33.328Z,11.90
2022-09-01T10:52:11.338Z,10.76
2022-09-01T10:54:51.347Z,7.18
2022-09-01T10:57:19.039Z,4.89
2022-09-01T10:59:56.118Z,5.92
2022-09-01T11:02:34.552Z,9.44
2022-09-01T11:05:02.419Z,12.41
2022-09-01T11:07:58.151Z,14.49
2022-09-01T11:10:43.591Z,15.32
2022-09-01T11:13:51.181Z,16.31
2022-09-01T11:16:49.517Z,17.83
2022-09-01T11:19:57.228Z,12.10
2022-09-01T11:22:37.902Z,8.24
2022-09-01T11:25:41.419Z,6.40
2022-09-01T11:28:23.984Z,6.40
2022-09-01T11:31:06.585Z,7.72
2022-09-01T11:34:13.105Z,11.29
2022-09-01T11:36:44.933Z,13.17
2022-09-01T11:39:18.115Z,14.42
2022-09-01T11:42:05.109Z,16.34
2022-09-01T11:44:42.673Z,18.00
2022-09-01T11:47:37.191Z,19.42
2022-09-01T11:50:27.915Z,20.12
2022-09-01T11:53:20.479Z,20.88
2022-09-01T11:55:53.795Z,21.40
2022-09-01T11:58:31.257Z,22.26
2022-09-01T12:01:38.795Z,22.86
2022-09-01T12:04:27.750Z,22.75
2022-09-01T12:07:45.148Z,23.05
2022-09-01T12:10:35.482Z,15.70
2022-09-01T12:13:13.083Z,12.99
2022-09-01T12:16:07.158Z,13.99
2022-09-01T12:18:47.542Z,16.55
2022-09-01T12:21:29.967Z,17.86
2022-09-01T12:24:22.992Z,18.65
2022-09-01T12:26:55.914Z,19.62
2022-09-01T12:29:23.466Z,20.26
2022-09-01T12:31:54.277Z,20.68
2022-09-01T12:34:59.189Z,20.76
2022-09-01T12:37:27.992Z,20.21
2022-09-01T12:39:58.762Z,19.88
2022-09-01T12:42:39.009Z,20.66
2022-09-01T12:45:13.334Z,21.65
2022-09-01T12:47:48.006Z,22.27
2022-09-01T12:50:16.741Z,23.36
2022-09-01T12:52:48.661Z,23.01
2022-09-01T12:58:13.121Z,24.96
2022-09-01T13:01:16.229Z,25.51
2022-09-01T13:04:12.060Z,25.41
2022-09-01T13:06:39.555Z,25.67
2022-09-01T13:09:07.333Z,26.13
2022-09-01T13:14:25.273Z,26.10
2022-09-01T13:16:52.689Z,24.73
2022-09-01T13:19:27.473Z,20.19
2022-09-01T13:21:56.398Z,15.33
2022-09-01T13:24:28.571Z,13.19
2022-09-01T13:29:46.683Z,16.04
2022-09-01T13:32:19.315Z,17.35
2022-09-01T13:34:50.677Z,17.73
2022-09-01T13:37:21.343Z,13.83
2022-09-01T13:39:49.136Z,12.01
2022-09-01T13:42:17.696Z,10.99
2022-09-01T13:44:49.551Z,10.83
2022-09-01T13:48:14.768Z,13.45
2022-09-01T13:50:11.416Z,16.12
2022-09-01T13:52:55.001Z,17.78
2022-09-01T13:55:31.769Z,16.36
2022-09-01T13:57:59.382Z,14.05
2022-09-01T14:00:36.581Z,11.93
2022-09-01T14:03:12.948Z,11.78
2022-09-01T14:05:43.818Z,14.64
2022-09-01T14:08:14.705Z,15.81
2022-09-01T14:10:47.255Z,16.09
2022-09-01T14:13:15.737Z,14.08
2022-09-01T14:15:44.828Z,14.46
2022-09-01T14:18:15.788Z,14.65
2022-09-01T14:20:47.322Z,13.03
2022-09-01T14:23:16.082Z,11.84
2022-09-01T14:25:51.199Z,10.99
2022-09-01T14:28:21.335Z,10.53
2022-09-01T14:33:18.710Z,12.18
2022-09-01T14:35:48.417Z,13.15
2022-09-01T14:38:16.231Z,14.47
2022-09-01T14:40:48.823Z,15.78
2022-09-01T14:43:16.347Z,17.00
2022-09-01T14:45:47.172Z,17.82
2022-09-01T14:48:20.664Z,18.99
2022-09-01T14:50:51.098Z,19.23
2022-09-01T14:53:19.624Z,19.91
2022-09-01T14:55:46.962Z,20.03
2022-09-01T14:58:14.428Z,20.86
2022-09-01T15:00:42.400Z,21.90
2022-09-01T15:03:20.519Z,22.83
2022-09-01T15:05:51.249Z,23.21
2022-09-01T15:08:19.070Z,23.98
2022-09-01T15:10:46.583Z,24.54
2022-09-01T15:13:14.124Z,25.72
2022-09-01T15:15:41.450Z,25.96
2022-09-01T15:18:08.897Z,26.84
2022-09-01T15:20:47.272Z,27.51
2022-09-01T15:23:20.933Z,28.04
2022-09-01T15:25:52.087Z,28.83
2022-09-01T15:28:20.056Z,29.16
2022-09-01T15:30:47.612Z,29.06
2022-09-01T15:33:16.134Z,29.05
2022-09-01T15:35:46.014Z,28.88
2022-09-01T15:38:19.631Z,29.45
2022-09-01T15:40:55.486Z,29.44
2022-09-01T15:43:26.508Z,29.95
2022-09-01T15:45:54.234Z,30.40
2022-09-01T15:48:21.614Z,29.83
2022-09-01T15:50:49.617Z,30.34
2022-09-01T15:53:17.240Z,30.77
2022-09-01T15:55:48.525Z,31.04
2022-09-01T15:58:18.416Z,30.92
2022-09-01T16:00:46.520Z,31.31
2022-09-01T16:03:13.881Z,32.33
2022-09-01T16:05:41.788Z,32.67
2022-09-01T16:08:11.650Z,32.59
2022-09-01T16:10:42.349Z,32.55
2022-09-01T16:13:11.283Z,33.20
2022-09-01T16:16:40.890Z,33.32
2022-09-01T16:19:32.691Z,33.81
2022-09-01T16:22:16.570Z,33.77
2022-09-01T16:24:54.320Z,34.02
2022-09-01T16:27:33.120Z,33.90
2022-09-01T16:30:08.834Z,34.22
2022-09-01T16:32:45.753Z,34.29
2022-09-01T16:35:14.844Z,34.28
2022-09-01T16:37:53.253Z,34.92
2022-09-01T16:41:21.138Z,35.64
2022-09-01T16:44:13.730Z,35.79
2022-09-01T16:47:25.688Z,35.99
2022-09-01T16:50:31.504Z,36.12
2022-09-01T16:53:02.563Z,36.93
2022-09-01T16:56:09.386Z,37.27
2022-09-01T16:58:46.422Z,37.37
2022-09-01T17:01:59.749Z,38.11
2022-09-01T17:04:46.901Z,38.05
2022-09-01T17:07:45.118Z,38.24
2022-09-01T17:10:29.208Z,38.39
2022-09-01T17:12:58.493Z,38.87
2022-09-01T17:15:40.848Z,39.27
2022-09-01T17:18:29.397Z,39.18
2022-09-01T17:21:20.916Z,39.87
2022-09-01T17:24:15.962Z,39.65
2022-09-01T17:26:47.887Z,39.31
2022-09-01T17:29:24.800Z,40.27
2022-09-01T17:32:27.283Z,41.36
2022-09-01T17:35:15.870Z,41.62
2022-09-01T17:37:57.122Z,41.96
2022-09-01T17:40:50.258Z,42.41
2022-09-01T17:43:49.702Z,42.81
2022-09-01T17:46:41.869Z,44.45
2022-09-01T17:49:50.848Z,44.45
2022-09-01T17:53:10.356Z,45.52
2022-09-01T17:56:09.420Z,45.19
2022-09-01T17:59:24.183Z,46.30
2022-09-01T18:02:20.200Z,46.76
2022-09-01T18:05:06.599Z,46.81
2022-09-01T18:07:46.637Z,46.94
2022-09-01T18:10:21.080Z,47.52
2022-09-01T18:13:00.710Z,48.10
2022-09-01T18:15:40.902Z,48.44
2022-09-01T18:18:27.071Z,48.46
2022-09-01T18:21:48.803Z,49.30
2022-09-01T18:24:22.154Z,49.28
2022-09-01T18:26:51.429Z,49.93
2022-09-01T18:29:20.249Z,49.79
2022-09-01T18:32:12.151Z,51.05
2022-09-01T18:34:59.111Z,51.34
2022-09-01T18:38:21.810Z,50.89
2022-09-01T18:41:08.321Z,51.60
2022-09-01T18:43:50.697Z,52.28
2022-09-01T18:46:31.257Z,52.05
2022-09-01T18:49:21.533Z,52.36
2022-09-01T18:52:41.566Z,53.19
2022-09-01T18:55:24.705Z,52.33
2022-09-01T18:57:56.797Z,52.57
2022-09-01T19:00:43.701Z,53.70
2022-09-01T19:03:29.979Z,54.91
2022-09-01T19:06:14.305Z,54.81
2022-09-01T19:09:03.278Z,54.96
2022-09-01T19:12:03.331Z,55.79
2022-09-01T19:15:12.276Z,55.94
2022-09-01T19:17:45.448Z,57.21
2022-09-01T19:20:28.759Z,57.02
2022-09-01T19:23:13.729Z,57.33
2022-09-01T19:25:42.880Z,57.04
2022-09-01T19:28:31.815Z,58.25
2022-09-01T19:31:24.038Z,58.21
2022-09-01T19:34:00.207Z,58.56
2022-09-01T19:36:36.510Z,58.86
2022-09-01T19:39:08.256Z,59.99
2022-09-01T19:41:48.464Z,59.51
2022-09-01T19:44:51.050Z,60.56
2022-09-01T19:47:37.401Z,61.76
2022-09-01T19:50:24.110Z,61.96
2022-09-01T19:53:00.787Z,62.01
2022-09-01T19:55:43.385Z,62.07
2022-09-01T19:58:25.171Z,62.41
2022-09-01T20:01:03.387Z,62.66
2022-09-01T20:04:04.443Z,63.10
2022-09-01T20:06:36.605Z,62.81
2022-09-01T20:09:59.453Z,62.80
2022-09-01T20:13:03.005Z,63.03
2022-09-01T20:15:54.064Z,63.33
2022-09-01T20:18:36.514Z,63.80
2022-09-01T20:21:18.776Z,63.75
2022-09-01T20:24:07.285Z,63.93
2022-09-01T20:27:14.871Z,63.75
2022-09-01T20:29:56.889Z,63.87
2022-09-01T20:32:51.781Z,64.95
2022-09-01T20:35:42.019Z,64.19
2022-09-01T20:38:42.591Z,64.93
2022-09-01T20:41:26.021Z,65.74
2022-09-01T20:43:57.148Z,65.68
2022-09-01T20:46:26.562Z,65.70
2022-09-01T20:48:53.998Z,65.66
2022-09-01T20:51:30.055Z,66.44
2022-09-01T20:54:27.612Z,66.79
2022-09-01T20:57:25.943Z,67.04
2022-09-01T21:00:07.085Z,66.52
2022-09-01T21:03:06.104Z,67.21
2022-09-01T21:06:07.221Z,67.22
2022-09-01T21:08:57.313Z,67.93
2022-09-01T21:11:38.147Z,68.36
2022-09-01T21:14:19.665Z,68.85
2022-09-01T21:17:23.271Z,69.31
2022-09-01T21:20:17.862Z,68.90
2022-09-01T21:22:45.210Z,68.22
2022-09-01T21:25:12.627Z,69.26
2022-09-01T21:27:54.705Z,69.50
2022-09-01T21:30:24.233Z,69.13
2022-09-01T21:32:56.855Z,70.05
2022-09-01T21:35:24.672Z,69.75
2022-09-01T21:37:53.124Z,68.80
2022-09-01T21:40:23.740Z,69.84
2022-09-01T21:43:06.957Z,70.42
2022-09-01T21:45:38.084Z,70.06
2022-09-01T21:48:06.621Z,70.36
2022-09-01T21:50:34.453Z,70.41
2022-09-01T21:53:01.968Z,69.62
2022-09-01T21:55:30.084Z,70.29
2022-09-01T21:57:57.746Z,70.87
2022-09-01T22:00:30.011Z,70.55
2022-09-01T22:02:59.532Z,70.90
2022-09-01T22:05:27.216Z,71.35
2022-09-01T22:07:56.640Z,71.25
2022-09-01T22:10:28.176Z,72.07
2022-09-01T22:12:56.362Z,72.65
2022-09-01T22:15:25.855Z,72.76
2022-09-01T22:17:56.265Z,72.81
2022-09-01T22:20:26.167Z,72.73
2022-09-01T22:22:56.788Z,72.98
2022-09-01T22:25:24.187Z,73.08
2022-09-01T22:27:51.703Z,72.62
2022-09-01T22:30:19.418Z,72.70
2022-09-01T22:32:48.063Z,73.33
2022-09-01T22:35:18.401Z,74.48
2022-09-01T22:37:46.714Z,74.33
2022-09-01T22:40:15.712Z,74.36
2022-09-01T22:42:43.830Z,74.41
2022-09-01T22:45:14.385Z,75.12
2022-09-01T22:47:41.958Z,74.60
2022-09-01T22:50:11.189Z,74.69
2022-09-01T22:52:39.821Z,75.08
2022-09-01T22:55:09.789Z,75.60
2022-09-01T22:57:37.781Z,75.28
2022-09-01T23:00:09.864Z,75.09
2022-09-01T23:02:37.821Z,74.98
2022-09-01T23:05:06.939Z,76.23
2022-09-01T23:07:39.579Z,76.23
2022-09-01T23:10:09.497Z,76.11
2022-09-01T23:12:36.885Z,75.86
2022-09-01T23:15:05.666Z,75.47
2022-09-01T23:17:33.225Z,76.46
2022-09-01T23:20:01.130Z,76.73
2022-09-01T23:22:28.719Z,77.73
2022-09-01T23:24:56.271Z,76.76
2022-09-01T23:27:23.537Z,76.91
2022-09-01T23:29:51.385Z,77.84
2022-09-01T23:32:18.733Z,78.37
2022-09-01T23:34:46.147Z,78.14
2022-09-01T23:37:13.403Z,77.95
2022-09-01T23:39:40.862Z,78.27
2022-09-01T23:42:08.159Z,78.04
2022-09-01T23:44:37.026Z,79.27
2022-09-01T23:47:04.783Z,79.18
2022-09-01T23:49:32.245Z,79.44
2022-09-01T23:51:59.671Z,79.94
2022-09-01T23:54:27.184Z,80.06
2022-09-01T23:56:54.540Z,80.29
2022-09-01T23:59:27.471Z,80.31
